Time;durP1;ratioP1;P1;durP2;ratioP2;P2;SDS_P1;SDS_P2;PMS_P1;PMS_P2;Temp;Humidity;BMP_temperature;BMP_pressure;BME280_temperature;BME280_humidity;BME280_pressure;Samples;Min_cycle;Max_cycle;Signal;HPM_P1;HPM_P2
2022/05/31 00:01:55;;;;;;;;;;;;;;;-144.12;100.00;72078.50;5008515;28;19918;-68
2022/05/31 00:04:21;;;;;;;;;;;;;;;-144.12;100.00;72078.50;5010164;28;20023;-68
2022/05/31 00:06:46;;;;;;;;;;;;;;;-144.12;100.00;72078.50;5009521;28;20028;-68
2022/05/31 00:09:12;;;;;;;;;;;;;;;-144.12;100.00;72078.50;5011262;28;19917;-68
2022/05/31 00:11:38;;;;;;;;;;;;;;;-144.12;100.00;72078.50;5010589;28;19972;-69
2022/05/31 00:14:04;;;;;;;;;;;;;;;-144.12;100.00;72078.50;5011171;28;19913;-69
2022/05/31 00:16:30;;;;;;;;;;;;;;;-144.12;100.00;72078.50;5007622;28;20004;-68
2022/05/31 00:18:55;;;;;;;;;;;;;;;-144.12;100.00;72078.50;5008741;28;20369;-70
2022/05/31 00:21:24;;;;;;;;;;;;;;;-144.12;100.00;72078.50;5011332;28;19917;-69
2022/05/31 00:23:49;;;;;;;;;;;;;;;-144.12;100.00;72078.50;5007904;28;20558;-68
2022/05/31 00:26:14;;;;;;;;;;;;;;;-144.12;100.00;72078.50;5009869;28;19917;-68
2022/05/31 00:28:40;;;;;;;;;;;;;;;-144.12;100.00;72078.50;4993889;28;20375;-70
2022/05/31 00:31:07;;;;;;;;;;;;;;;-144.12;100.00;72078.50;4988084;28;19922;-69
2022/05/31 00:33:33;;;;;;;;;;;;;;;-144.12;100.00;72078.50;5005574;28;19913;-70
2022/05/31 00:35:58;;;;;;;;;;;;;;;-144.12;100.00;72078.50;5009512;28;19971;-69
2022/05/31 00:38:23;;;;;;;;;;;;;;;-144.12;100.00;72078.50;5011089;28;19917;-68
2022/05/31 00:40:49;;;;;;;;;;;;;;;-144.12;100.00;72078.50;5006326;28;20374;-68
2022/05/31 00:43:20;;;;;;;;;;;;;;;-144.12;100.00;72078.50;5010833;28;21524;-70
2022/05/31 00:45:52;;;;;;;;;;;;;;;-144.12;100.00;72078.50;5002593;28;20355;-69
2022/05/31 00:48:23;;;;;;;;;;;;;;;-144.12;100.00;72078.50;5010914;28;19913;-69
2022/05/31 00:50:52;;;;;;;;;;;;;;;-144.12;100.00;72078.50;5000242;28;20378;-69
2022/05/31 00:53:22;;;;;;;;;;;;;;;-144.12;100.00;72078.50;5007948;28;19942;-69
2022/05/31 00:55:52;;;;;;;;;;;;;;;-144.12;100.00;72078.50;5008450;28;19913;-69
2022/05/31 00:58:31;;;;;;;;;;;;;;;-144.12;100.00;72078.50;5010423;28;19925;-70
2022/05/31 01:00:57;;;;;;;;;;;;;;;-144.12;100.00;72078.50;5000704;28;19917;-69
2022/05/31 01:03:23;;;;;;;;;;;;;;;-144.12;100.00;72078.50;5004770;28;19913;-69
2022/05/31 01:05:48;;;;;;;;;;;;;;;-144.12;100.00;72078.50;5009177;28;19913;-69
2022/05/31 01:08:14;;;;;;;;;;;;;;;-144.12;100.00;72078.50;5009043;28;19913;-69
2022/05/31 01:11:00;;;;;;;;;;;;;;;-144.12;100.00;72078.50;5007806;28;20374;-70
2022/05/31 01:13:43;;;;;;;;;;;;;;;-144.12;100.00;72078.50;5006156;28;19967;-69
2022/05/31 01:16:27;;;;;;;;;;;;;;;-144.12;100.00;72078.50;5007086;28;19935;-69
2022/05/31 01:22:18;;;;;;;;;;;;;;;-144.12;100.00;72078.50;4998987;28;19914;-69
2022/05/31 01:25:01;;;;;;;;;;;;;;;-144.12;100.00;72078.50;5010223;28;19975;-69
2022/05/31 01:27:26;;;;;;;;;;;;;;;-144.12;100.00;72078.50;5010313;28;19923;-69
2022/05/31 01:29:52;;;;;;;;;;;;;;;-144.12;100.00;72078.50;5015235;28;19918;-69
2022/05/31 01:32:17;;;;;;;;;;;;;;;-144.12;100.00;72078.50;5012327;28;19914;-69
2022/05/31 01:34:49;;;;;;;;;;;;;;;-144.12;100.00;72078.50;5012468;28;19928;-69
2022/05/31 01:37:14;;;;;;;;;;;;;;;-144.12;100.00;72078.50;5014671;28;19917;-69
2022/05/31 01:39:53;;;;;;;;;;;;;;;-144.12;100.00;72078.50;5016910;28;20003;-69
2022/05/31 01:42:21;;;;;;;;;;;;;;;-144.12;100.00;72078.50;5001748;28;19932;-69
2022/05/31 01:44:52;;;;;;;;;;;;;;;-144.12;100.00;72078.50;5014836;28;19918;-69
2022/05/31 01:47:18;;;;;;;;;;;;;;;-144.12;100.00;72078.50;5009957;28;19967;-69
2022/05/31 01:49:46;;;;;;;;;;;;;;;-144.12;100.00;72078.50;5014168;28;19913;-69
2022/05/31 01:52:11;;;;;;;;;;;;;;;-144.12;100.00;72078.50;5015993;28;19995;-69
2022/05/31 01:54:38;;;;;;;;;;;;;;;-144.12;100.00;72078.50;5013779;28;20359;-69
2022/05/31 01:57:05;;;;;;;;;;;;;;;-144.12;100.00;72078.50;5010477;28;19917;-69
2022/05/31 01:59:38;;;;;;;;;;;;;;;-144.12;100.00;72078.50;5012851;28;19925;-68
2022/05/31 02:02:04;;;;;;;;;;;;;;;-144.12;100.00;72078.50;5015662;28;19913;-68
2022/05/31 02:04:30;;;;;;;;;;;;;;;-144.12;100.00;72078.50;5012824;28;20019;-68
2022/05/31 02:07:12;;;;;;;;;;;;;;;-144.12;100.00;72078.50;5014431;28;20000;-70
2022/05/31 02:09:43;;;;;;;;;;;;;;;-144.12;100.00;72078.50;5035197;28;19921;-69
2022/05/31 02:12:12;;;;;;;;;;;;;;;-144.12;100.00;72078.50;5014921;28;19921;-69
2022/05/31 02:14:47;;;;;;;;;;;;;;;-144.12;100.00;72078.50;5008717;28;19917;-69
2022/05/31 02:17:13;;;;;;;;;;;;;;;-144.12;100.00;72078.50;5024532;28;19975;-69
2022/05/31 02:19:57;;;;;;;;;;;;;;;-144.12;100.00;72078.50;5013883;28;19919;-69
2022/05/31 02:22:30;;;;;;;;;;;;;;;-144.12;100.00;72078.50;5004850;28;19917;-69
2022/05/31 02:24:55;;;;;;;;;;;;;;;-144.12;100.00;72078.50;5009259;28;19913;-69
2022/05/31 02:27:21;;;;;;;;;;;;;;;-144.12;100.00;72078.50;5014981;28;19943;-69
2022/05/31 02:29:46;;;;;;;;;;;;;;;-144.12;100.00;72078.50;5014877;28;19924;-69
2022/05/31 02:32:13;;;;;;;;;;;;;;;-144.12;100.00;72078.50;5002456;28;19913;-69
2022/05/31 02:34:41;;;;;;;;;;;;;;;-144.12;100.00;72078.50;5010694;28;19917;-69
2022/05/31 02:37:07;;;;;;;;;;;;;;;-144.12;100.00;72078.50;5011781;28;19914;-69
2022/05/31 02:39:33;;;;;;;;;;;;;;;-144.12;100.00;72078.50;5012943;28;19971;-69
2022/05/31 02:41:59;;;;;;;;;;;;;;;-144.12;100.00;72078.50;5006589;28;19917;-69
2022/05/31 02:44:26;;;;;;;;;;;;;;;-144.12;100.00;72078.50;5009942;28;20015;-70
2022/05/31 02:46:52;;;;;;;;;;;;;;;-144.12;100.00;72078.50;5004722;28;20329;-69
2022/05/31 02:49:18;;;;;;;;;;;;;;;-144.12;100.00;72078.50;5008098;28;19918;-69
2022/05/31 02:51:45;;;;;;;;;;;;;;;-144.12;100.00;72078.50;5008337;28;19921;-69
2022/05/31 02:54:11;;;;;;;;;;;;;;;-144.12;100.00;72078.50;5000081;28;19921;-69
2022/05/31 02:56:55;;;;;;;;;;;;;;;-144.12;100.00;72078.50;5014129;28;19967;-69
2022/05/31 02:59:40;;;;;;;;;;;;;;;-144.12;100.00;72078.50;5011775;28;19927;-69
2022/05/31 03:02:37;;;;;;;;;;;;;;;-144.12;100.00;72078.50;5004637;28;19920;-69
2022/05/31 03:05:21;;;;;;;;;;;;;;;-144.12;100.00;72078.50;5012283;28;19924;-69
2022/05/31 03:07:50;;;;;;;;;;;;;;;-144.12;100.00;72078.50;5007476;28;19925;-69
2022/05/31 03:10:18;;;;;;;;;;;;;;;-144.12;100.00;72078.50;5011179;28;20429;-70
2022/05/31 03:12:45;;;;;;;;;;;;;;;-144.12;100.00;72078.50;5007494;28;20001;-68
2022/05/31 03:15:11;;;;;;;;;;;;;;;-144.12;100.00;72078.50;5008682;28;20408;-69
2022/05/31 03:17:39;;;;;;;;;;;;;;;-144.12;100.00;72078.50;5012420;28;19921;-69
2022/05/31 03:20:23;;;;;;;;;;;;;;;-144.12;100.00;72078.50;5009802;28;19948;-69
2022/05/31 03:22:51;;;;;;;;;;;;;;;-144.12;100.00;72078.50;5003550;28;20336;-69
2022/05/31 03:25:19;;;;;;;;;;;;;;;-144.12;100.00;72078.50;5004218;28;20297;-69
2022/05/31 03:27:45;;;;;;;;;;;;;;;-144.12;100.00;72078.50;5007667;28;19913;-69
2022/05/31 03:30:10;;;;;;;;;;;;;;;-144.12;100.00;72078.50;5011853;28;19920;-69
2022/05/31 03:32:36;;;;;;;;;;;;;;;-144.12;100.00;72078.50;4999114;28;19922;-69
2022/05/31 03:35:02;;;;;;;;;;;;;;;-144.12;100.00;72078.50;5009543;28;19991;-69
2022/05/31 03:37:28;;;;;;;;;;;;;;;-144.12;100.00;72078.50;5008722;28;19940;-69
2022/05/31 03:39:55;;;;;;;;;;;;;;;-144.12;100.00;72078.50;5005310;28;20036;-69
2022/05/31 03:42:21;;;;;;;;;;;;;;;-144.12;100.00;72078.50;5024397;28;20009;-69
2022/05/31 03:44:46;;;;;;;;;;;;;;;-144.12;100.00;72078.50;5009871;28;19971;-69
2022/05/31 03:47:30;;;;;;;;;;;;;;;-144.12;100.00;72078.50;5011386;28;20405;-69
2022/05/31 03:50:25;;;;;;;;;;;;;;;-144.12;100.00;72078.50;4995945;28;19959;-69
2022/05/31 03:52:51;;;;;;;;;;;;;;;-144.12;100.00;72078.50;5003430;28;19925;-69
2022/05/31 03:55:17;;;;;;;;;;;;;;;-144.12;100.00;72078.50;5007037;28;19920;-70
2022/05/31 03:57:42;;;;;;;;;;;;;;;-144.12;100.00;72078.50;5010120;28;19921;-69
2022/05/31 04:00:26;;;;;;;;;;;;;;;-144.12;100.00;72078.50;5013249;28;19924;-69
2022/05/31 04:03:10;;;;;;;;;;;;;;;-144.12;100.00;72078.50;5007494;28;19917;-69
2022/05/31 04:05:35;;;;;;;;;;;;;;;-144.12;100.00;72078.50;5009084;28;19925;-69
2022/05/31 04:08:03;;;;;;;;;;;;;;;-144.12;100.00;72078.50;5010975;28;20401;-69
2022/05/31 04:10:29;;;;;;;;;;;;;;;-144.12;100.00;72078.50;5006001;28;19918;-69
2022/05/31 04:12:55;;;;;;;;;;;;;;;-144.12;100.00;72078.50;5010520;28;20409;-69
2022/05/31 04:16:06;;;;;;;;;;;;;;;-144.12;100.00;72078.50;5010412;28;19987;-69
2022/05/31 04:18:37;;;;;;;;;;;;;;;-144.12;100.00;72078.50;5007194;28;19924;-69
2022/05/31 04:21:03;;;;;;;;;;;;;;;-144.12;100.00;72078.50;5004063;28;20056;-69
2022/05/31 04:26:36;;;;;;;;;;;;;;;-144.12;100.00;72078.50;4999549;28;19913;-69
2022/05/31 04:29:20;;;;;;;;;;;;;;;-144.12;100.00;72078.50;5006767;28;19937;-69
2022/05/31 04:32:04;;;;;;;;;;;;;;;-144.12;100.00;72078.50;5011149;28;19963;-69
2022/05/31 04:34:41;;;;;;;;;;;;;;;-144.12;100.00;72078.50;5009132;28;20529;-69
2022/05/31 04:37:07;;;;;;;;;;;;;;;-144.12;100.00;72078.50;4991336;28;20035;-69
2022/05/31 04:39:52;;;;;;;;;;;;;;;-144.12;100.00;72078.50;5008219;28;20342;-69
2022/05/31 04:42:30;;;;;;;;;;;;;;;-144.12;100.00;72078.50;5006936;28;20347;-69
2022/05/31 04:44:55;;;;;;;;;;;;;;;-144.12;100.00;72078.50;5009598;28;19921;-69
2022/05/31 04:47:21;;;;;;;;;;;;;;;-144.12;100.00;72078.50;5006565;28;19909;-69
2022/05/31 04:49:49;;;;;;;;;;;;;;;-144.12;100.00;72078.50;5001477;28;19956;-69
2022/05/31 04:52:16;;;;;;;;;;;;;;;-144.12;100.00;72078.50;5010334;28;19913;-69
2022/05/31 04:54:48;;;;;;;;;;;;;;;-144.12;100.00;72078.50;5001219;28;19917;-69
2022/05/31 04:57:35;;;;;;;;;;;;;;;-144.12;100.00;72078.50;5009738;28;20309;-69
2022/05/31 05:00:01;;;;;;;;;;;;;;;-144.12;100.00;72078.50;5005287;28;20371;-69
2022/05/31 05:02:27;;;;;;;;;;;;;;;-144.12;100.00;72078.50;4990041;28;19917;-69
2022/05/31 05:05:01;;;;;;;;;;;;;;;-144.12;100.00;72078.50;4999280;28;19913;-69
2022/05/31 05:07:49;;;;;;;;;;;;;;;-144.12;100.00;72078.50;4997574;28;19913;-69
2022/05/31 05:10:17;;;;;;;;;;;;;;;-144.12;100.00;72078.50;4987600;28;19944;-69
2022/05/31 05:13:03;;;;;;;;;;;;;;;-144.12;100.00;72078.50;5012914;28;20814;-69
2022/05/31 05:16:02;;;;;;;;;;;;;;;-144.12;100.00;72078.50;4995705;28;19920;-69
2022/05/31 05:18:34;;;;;;;;;;;;;;;-144.12;100.00;72078.50;5007249;28;20417;-69
2022/05/31 05:21:00;;;;;;;;;;;;;;;-144.12;100.00;72078.50;5007631;28;19920;-69
2022/05/31 05:23:26;;;;;;;;;;;;;;;-144.12;100.00;72078.50;4998566;28;20003;-69
2022/05/31 05:25:53;;;;;;;;;;;;;;;-144.12;100.00;72078.50;5003271;28;19921;-69
2022/05/31 05:31:24;;;;;;;;;;;;;;;-144.12;100.00;72078.50;4998478;28;20381;-70
2022/05/31 05:34:28;;;;;;;;;;;;;;;-144.12;100.00;72078.50;5029237;28;19975;-70
2022/05/31 05:36:56;;;;;;;;;;;;;;;-144.12;100.00;72078.50;5009266;28;19960;-70
2022/05/31 05:39:22;;;;;;;;;;;;;;;-144.12;100.00;72078.50;5008572;28;19948;-70
2022/05/31 05:42:06;;;;;;;;;;;;;;;-144.12;100.00;72078.50;4989455;28;20409;-70
2022/05/31 05:44:51;;;;;;;;;;;;;;;-144.12;100.00;72078.50;5000469;28;19921;-70
2022/05/31 05:47:17;;;;;;;;;;;;;;;-144.12;100.00;72078.50;5008935;28;19921;-70
2022/05/31 05:49:42;;;;;;;;;;;;;;;-144.12;100.00;72078.50;5005658;28;19959;-71
2022/05/31 05:52:29;;;;;;;;;;;;;;;-144.12;100.00;72078.50;5008738;28;19948;-72
2022/05/31 05:55:12;;;;;;;;;;;;;;;-144.12;100.00;72078.50;5011797;28;20405;-71
2022/05/31 05:57:57;;;;;;;;;;;;;;;-144.12;100.00;72078.50;5007033;28;19952;-71
2022/05/31 06:00:47;;;;;;;;;;;;;;;-144.12;100.00;72078.50;5012745;28;19980;-70
2022/05/31 06:03:18;;;;;;;;;;;;;;;-144.12;100.00;72078.50;5000493;28;19972;-71
2022/05/31 06:05:52;;;;;;;;;;;;;;;-144.12;100.00;72078.50;5006910;28;19922;-72
2022/05/31 06:08:43;;;;;;;;;;;;;;;-144.12;100.00;72078.50;5002375;28;20016;-71
2022/05/31 06:11:15;;;;;;;;;;;;;;;-144.12;100.00;72078.50;5004128;28;19944;-72
2022/05/31 06:13:45;;;;;;;;;;;;;;;-144.12;100.00;72078.50;5022628;28;19929;-71
2022/05/31 06:16:11;;;;;;;;;;;;;;;-144.12;100.00;72078.50;5005426;28;19914;-72
2022/05/31 06:18:44;;;;;;;;;;;;;;;-144.12;100.00;72078.50;5015024;28;20309;-69
2022/05/31 06:21:10;;;;;;;;;;;;;;;-144.12;100.00;72078.50;5011531;28;19917;-70
2022/05/31 06:23:38;;;;;;;;;;;;;;;-144.12;100.00;72078.50;5013040;28;19949;-72
2022/05/31 06:26:06;;;;;;;;;;;;;;;-144.12;100.00;72078.50;4994160;28;19916;-72
2022/05/31 06:28:37;;;;;;;;;;;;;;;-144.12;100.00;72078.50;5018520;28;19917;-72
2022/05/31 06:31:03;;;;;;;;;;;;;;;-144.12;100.00;72078.50;5006324;28;19920;-72
2022/05/31 06:33:28;;;;;;;;;;;;;;;-144.12;100.00;72078.50;5017032;28;19909;-71
2022/05/31 06:35:53;;;;;;;;;;;;;;;-144.12;100.00;72078.50;5008957;28;19921;-72
2022/05/31 06:38:20;;;;;;;;;;;;;;;-144.12;100.00;72078.50;5017224;28;19959;-72
2022/05/31 06:40:51;;;;;;;;;;;;;;;-144.12;100.00;72078.50;5011929;28;19940;-72
2022/05/31 06:43:28;;;;;;;;;;;;;;;-144.12;100.00;72078.50;5005386;28;19920;-72
2022/05/31 06:46:12;;;;;;;;;;;;;;;-144.12;100.00;72078.50;5016205;28;19923;-72
2022/05/31 06:48:57;;;;;;;;;;;;;;;-144.12;100.00;72078.50;5015773;28;19928;-73
2022/05/31 06:58:14;;;;;;;;;;;;;;;-144.12;100.00;72078.50;5012159;28;19971;-70
2022/05/31 07:00:44;;;;;;;;;;;;;;;-144.12;100.00;72078.50;5010362;28;19963;-71
2022/05/31 07:03:09;;;;;;;;;;;;;;;-144.12;100.00;72078.50;4994761;28;20370;-72
2022/05/31 07:05:40;;;;;;;;;;;;;;;-144.12;100.00;72078.50;5007687;28;19913;-70
2022/05/31 07:08:07;;;;;;;;;;;;;;;-144.12;100.00;72078.50;5018244;28;19963;-73
2022/05/31 07:11:10;;;;;;;;;;;;;;;-144.12;100.00;72078.50;5013767;28;19953;-72
2022/05/31 07:13:55;;;;;;;;;;;;;;;-144.12;100.00;72078.50;5009143;28;20093;-71
2022/05/31 07:16:39;;;;;;;;;;;;;;;-144.12;100.00;72078.50;5013193;28;19924;-71
2022/05/31 07:19:16;;;;;;;;;;;;;;;-144.12;100.00;72078.50;5014390;28;19917;-72
2022/05/31 07:21:46;;;;;;;;;;;;;;;-144.12;100.00;72078.50;5010845;28;19921;-71
2022/05/31 07:24:12;;;;;;;;;;;;;;;-144.12;100.00;72078.50;5011952;28;19917;-72
2022/05/31 07:26:50;;;;;;;;;;;;;;;-144.12;100.00;72078.50;5008322;28;19917;-72
2022/05/31 07:29:17;;;;;;;;;;;;;;;-144.12;100.00;72078.50;5015512;28;19921;-72
2022/05/31 07:31:44;;;;;;;;;;;;;;;-144.12;100.00;72078.50;5009360;28;20358;-72
2022/05/31 07:34:11;;;;;;;;;;;;;;;-144.12;100.00;72078.50;5025379;28;19960;-71
2022/05/31 07:36:38;;;;;;;;;;;;;;;-144.12;100.00;72078.50;5013005;28;19914;-72
2022/05/31 07:39:11;;;;;;;;;;;;;;;-144.12;100.00;72078.50;5020068;28;19921;-70
2022/05/31 07:41:39;;;;;;;;;;;;;;;-144.12;100.00;72078.50;5017689;28;20377;-72
2022/05/31 07:44:05;;;;;;;;;;;;;;;-144.12;100.00;72078.50;5016247;28;19985;-73
2022/05/31 07:46:31;;;;;;;;;;;;;;;-144.12;100.00;72078.50;5013895;28;19949;-70
2022/05/31 07:48:57;;;;;;;;;;;;;;;-144.12;100.00;72078.50;5012489;28;19913;-70
2022/05/31 07:51:41;;;;;;;;;;;;;;;-144.12;100.00;72078.50;5009344;28;20329;-72
2022/05/31 07:54:29;;;;;;;;;;;;;;;-144.12;100.00;72078.50;5011786;28;20004;-72
2022/05/31 08:00:17;;;;;;;;;;;;;;;-144.12;100.00;72078.50;5052743;23;19927;-70
2022/05/31 08:02:45;;;;;;;;;;;;;;;-144.12;100.00;72078.50;5049981;28;19927;-70
2022/05/31 08:05:10;;;;;;;;;;;;;;;-144.12;100.00;72078.50;5044373;28;19908;-70
2022/05/31 08:07:36;;;;;;;;;;;;;;;-144.12;100.00;72078.50;5038252;28;20030;-70
2022/05/31 08:10:01;;;;;;;;;;;;;;;-144.12;100.00;72078.50;5036812;28;19986;-69
2022/05/31 08:12:27;;;;;;;;;;;;;;;-144.12;100.00;72078.50;5038152;28;19913;-70
2022/05/31 08:14:52;;;;;;;;;;;;;;;-144.12;100.00;72078.50;5030723;28;19913;-71
2022/05/31 08:17:17;;;;;;;;;;;;;;;-144.12;100.00;72078.50;5030812;28;19961;-71
2022/05/31 08:19:43;;;;;;;;;;;;;;;-144.12;100.00;72078.50;5014678;28;20011;-68
2022/05/31 08:22:08;;;;;;;;;;;;;;;-144.12;100.00;72078.50;5016986;28;19913;-68
2022/05/31 08:24:34;;;;;;;;;;;;;;;-144.12;100.00;72078.50;5024139;28;20828;-67
2022/05/31 08:27:00;;;;;;;;;;;;;;;-144.12;100.00;72078.50;5029881;28;20484;-70
2022/05/31 08:29:26;;;;;;;;;;;;;;;-144.12;100.00;72078.50;5018934;28;19962;-67
2022/05/31 08:31:51;;;;;;;;;;;;;;;-144.12;100.00;72078.50;5030795;28;20004;-67
2022/05/31 08:34:16;;;;;;;;;;;;;;;-144.12;100.00;72078.50;5026512;28;19924;-67
2022/05/31 08:36:42;;;;;;;;;;;;;;;-144.12;100.00;72078.50;5015830;28;19917;-68
2022/05/31 08:39:07;;;;;;;;;;;;;;;-144.12;100.00;72078.50;5029678;28;19916;-67
2022/05/31 08:41:37;;;;;;;;;;;;;;;-144.12;100.00;72078.50;5029459;28;20024;-67
2022/05/31 08:44:05;;;;;;;;;;;;;;;-144.12;100.00;72078.50;5021822;28;19920;-68
2022/05/31 08:46:42;;;;;;;;;;;;;;;-144.12;100.00;72078.50;5032065;28;19913;-67
2022/05/31 08:49:19;;;;;;;;;;;;;;;-144.12;100.00;72078.50;5031872;28;20436;-67
2022/05/31 08:51:54;;;;;;;;;;;;;;;-144.12;100.00;72078.50;5022326;28;19974;-67
2022/05/31 08:57:13;;;;;;;;;;;;;;;-144.12;100.00;72078.50;5017063;28;19917;-67
2022/05/31 08:59:49;;;;;;;;;;;;;;;-144.12;100.00;72078.50;5011718;28;20369;-67
2022/05/31 09:02:20;;;;;;;;;;;;;;;-144.12;100.00;72078.50;5020957;28;20032;-70
2022/05/31 09:04:51;;;;;;;;;;;;;;;-144.12;100.00;72078.50;5026581;28;19970;-70
2022/05/31 09:07:22;;;;;;;;;;;;;;;-144.12;100.00;72078.50;5004658;28;20230;-70
2022/05/31 09:09:47;;;;;;;;;;;;;;;-144.12;100.00;72078.50;5034065;28;19921;-70
2022/05/31 09:12:17;;;;;;;;;;;;;;;-144.12;100.00;72078.50;5032403;28;19916;-70
2022/05/31 09:14:50;;;;;;;;;;;;;;;-144.12;100.00;72078.50;5026688;28;20109;-70
2022/05/31 09:17:15;;;;;;;;;;;;;;;-144.12;100.00;72078.50;5022976;28;19921;-69
2022/05/31 09:19:49;;;;;;;;;;;;;;;-144.12;100.00;72078.50;5029013;28;20262;-67
2022/05/31 09:22:15;;;;;;;;;;;;;;;-144.12;100.00;72078.50;5011971;28;19919;-67
2022/05/31 09:24:41;;;;;;;;;;;;;;;-144.12;100.00;72078.50;5023285;28;19912;-67
2022/05/31 09:27:09;;;;;;;;;;;;;;;-144.12;100.00;72078.50;5034462;28;19967;-67
2022/05/31 09:29:55;;;;;;;;;;;;;;;-144.12;100.00;72078.50;5035471;28;19959;-67
2022/05/31 09:32:23;;;;;;;;;;;;;;;-144.12;100.00;72078.50;5008747;28;20023;-66
2022/05/31 09:35:00;;;;;;;;;;;;;;;-144.12;100.00;72078.50;5038226;28;20347;-68
2022/05/31 09:37:33;;;;;;;;;;;;;;;-144.12;100.00;72078.50;5029740;28;20293;-67
2022/05/31 09:40:14;;;;;;;;;;;;;;;-144.12;100.00;72078.50;5035852;28;19920;-67
2022/05/31 09:42:42;;;;;;;;;;;;;;;-144.12;100.00;72078.50;5034134;28;20309;-67
2022/05/31 09:45:16;;;;;;;;;;;;;;;-144.12;100.00;72078.50;5040816;28;19948;-68
2022/05/31 09:47:41;;;;;;;;;;;;;;;-144.12;100.00;72078.50;5030310;28;20388;-68
2022/05/31 09:50:07;;;;;;;;;;;;;;;-144.12;100.00;72078.50;5015528;28;19917;-67
2022/05/31 09:52:42;;;;;;;;;;;;;;;-144.12;100.00;72078.50;5032619;28;19912;-67
2022/05/31 09:58:36;;;;;;;;;;;;;;;-144.12;100.00;72078.50;4995619;28;20379;-67
2022/05/31 10:01:25;;;;;;;;;;;;;;;-144.12;100.00;72078.50;5028599;28;19921;-68
2022/05/31 10:04:09;;;;;;;;;;;;;;;-144.12;100.00;72078.50;5019283;28;20400;-67
2022/05/31 10:06:49;;;;;;;;;;;;;;;-144.12;100.00;72078.50;5035705;28;20008;-68
2022/05/31 10:09:16;;;;;;;;;;;;;;;-144.12;100.00;72078.50;5035146;28;19992;-67
2022/05/31 10:11:45;;;;;;;;;;;;;;;-144.12;100.00;72078.50;4997667;28;19909;-67
2022/05/31 10:14:16;;;;;;;;;;;;;;;-144.12;100.00;72078.50;5017042;28;20288;-67
2022/05/31 10:16:42;;;;;;;;;;;;;;;-144.12;100.00;72078.50;5035646;28;19917;-67
2022/05/31 10:19:20;;;;;;;;;;;;;;;-144.12;100.00;72078.50;5029168;28;19916;-67
2022/05/31 10:21:46;;;;;;;;;;;;;;;-144.12;100.00;72078.50;5041754;28;20547;-67
2022/05/31 10:24:24;;;;;;;;;;;;;;;-144.12;100.00;72078.50;5013934;28;19913;-68
2022/05/31 10:27:11;;;;;;;;;;;;;;;-144.12;100.00;72078.50;5025714;28;20335;-67
2022/05/31 10:29:52;;;;;;;;;;;;;;;-144.12;100.00;72078.50;5025003;28;19916;-67
2022/05/31 10:32:43;;;;;;;;;;;;;;;-144.12;100.00;72078.50;5007115;28;19913;-67
2022/05/31 10:35:12;;;;;;;;;;;;;;;-144.12;100.00;72078.50;5023354;28;19921;-68
2022/05/31 10:37:46;;;;;;;;;;;;;;;-144.12;100.00;72078.50;5026066;28;19917;-68
2022/05/31 10:40:16;;;;;;;;;;;;;;;-144.12;100.00;72078.50;5025072;28;20439;-68
2022/05/31 10:42:44;;;;;;;;;;;;;;;-144.12;100.00;72078.50;5025258;28;19955;-68
2022/05/31 10:45:19;;;;;;;;;;;;;;;-144.12;100.00;72078.50;5028313;28;19952;-68
2022/05/31 10:47:45;;;;;;;;;;;;;;;-144.12;100.00;72078.50;5023771;28;20329;-68
2022/05/31 10:50:10;;;;;;;;;;;;;;;-144.12;100.00;72078.50;5010378;28;19959;-68
2022/05/31 10:52:44;;;;;;;;;;;;;;;-144.12;100.00;72078.50;5011386;28;19932;-68
2022/05/31 10:55:18;;;;;;;;;;;;;;;-144.12;100.00;72078.50;4987139;28;19913;-69
2022/05/31 10:58:03;;;;;;;;;;;;;;;-144.12;100.00;72078.50;5012271;28;19917;-68
2022/05/31 11:00:47;;;;;;;;;;;;;;;-144.12;100.00;72078.50;5010704;28;20020;-68
2022/05/31 11:03:18;;;;;;;;;;;;;;;-144.12;100.00;72078.50;4998503;28;19920;-68
2022/05/31 11:06:02;;;;;;;;;;;;;;;-144.12;100.00;72078.50;5017047;28;19970;-68
2022/05/31 11:11:32;;;;;;;;;;;;;;;-144.12;100.00;72078.50;5015301;28;19921;-68
2022/05/31 11:14:12;;;;;;;;;;;;;;;-144.12;100.00;72078.50;5030168;28;20361;-68
2022/05/31 11:16:56;;;;;;;;;;;;;;;-144.12;100.00;72078.50;5031454;28;19925;-68
2022/05/31 11:19:34;;;;;;;;;;;;;;;-144.12;100.00;72078.50;5012428;28;19913;-68
2022/05/31 11:21:59;;;;;;;;;;;;;;;-144.12;100.00;72078.50;5008591;28;19940;-68
2022/05/31 11:24:24;;;;;;;;;;;;;;;-144.12;100.00;72078.50;5007803;28;19917;-68
2022/05/31 11:27:07;;;;;;;;;;;;;;;-144.12;100.00;72078.50;5012230;28;20397;-68
2022/05/31 11:29:47;;;;;;;;;;;;;;;-144.12;100.00;72078.50;5017308;28;19961;-68
2022/05/31 11:32:13;;;;;;;;;;;;;;;-144.12;100.00;72078.50;5014335;28;19928;-68
2022/05/31 11:34:44;;;;;;;;;;;;;;;-144.12;100.00;72078.50;4991370;28;19916;-68
2022/05/31 11:37:19;;;;;;;;;;;;;;;-144.12;100.00;72078.50;4990415;28;19975;-68
2022/05/31 11:40:04;;;;;;;;;;;;;;;-144.12;100.00;72078.50;5005163;28;19923;-68
2022/05/31 11:42:32;;;;;;;;;;;;;;;-144.12;100.00;72078.50;5026081;28;19920;-68
2022/05/31 11:45:12;;;;;;;;;;;;;;;-144.12;100.00;72078.50;5008537;28;20344;-68
2022/05/31 11:47:40;;;;;;;;;;;;;;;-144.12;100.00;72078.50;5004324;28;19918;-68
2022/05/31 11:50:05;;;;;;;;;;;;;;;-144.12;100.00;72078.50;5016991;28;19919;-68
2022/05/31 11:52:45;;;;;;;;;;;;;;;-144.12;100.00;72078.50;5018940;28;20558;-68
2022/05/31 11:55:43;;;;;;;;;;;;;;;-144.12;100.00;72078.50;5015780;28;20270;-68
2022/05/31 11:58:26;;;;;;;;;;;;;;;-144.12;100.00;72078.50;4956536;28;20262;-68
2022/05/31 12:01:01;;;;;;;;;;;;;;;-144.12;100.00;72078.50;5021276;28;19913;-69
2022/05/31 12:03:29;;;;;;;;;;;;;;;-144.12;100.00;72078.50;5013548;28;19913;-68
2022/05/31 12:05:59;;;;;;;;;;;;;;;-144.12;100.00;72078.50;5013659;28;19917;-68
2022/05/31 12:08:29;;;;;;;;;;;;;;;-144.12;100.00;72078.50;5012641;28;20722;-68
2022/05/31 12:10:58;;;;;;;;;;;;;;;-144.12;100.00;72078.50;5001476;28;19917;-68
2022/05/31 12:13:24;;;;;;;;;;;;;;;-144.12;100.00;72078.50;5009055;28;19987;-69
2022/05/31 12:15:52;;;;;;;;;;;;;;;-144.12;100.00;72078.50;5018444;28;20059;-69
2022/05/31 12:18:20;;;;;;;;;;;;;;;-144.12;100.00;72078.50;5019721;28;19964;-68
2022/05/31 12:21:04;;;;;;;;;;;;;;;-144.12;100.00;72078.50;5011343;28;20271;-68
2022/05/31 12:23:40;;;;;;;;;;;;;;;-144.12;100.00;72078.50;5018894;28;19917;-68
2022/05/31 12:26:16;;;;;;;;;;;;;;;-144.12;100.00;72078.50;5006994;28;20392;-68
2022/05/31 12:28:53;;;;;;;;;;;;;;;-144.12;100.00;72078.50;5001366;28;19917;-69
2022/05/31 12:31:26;;;;;;;;;;;;;;;-144.12;100.00;72078.50;5009979;28;20581;-69
2022/05/31 12:33:52;;;;;;;;;;;;;;;-144.12;100.00;72078.50;5019642;28;19913;-69
2022/05/31 12:36:19;;;;;;;;;;;;;;;-144.12;100.00;72078.50;5042216;28;19916;-68
2022/05/31 12:38:54;;;;;;;;;;;;;;;-144.12;100.00;72078.50;5024889;28;20013;-69
2022/05/31 12:41:34;;;;;;;;;;;;;;;-144.12;100.00;72078.50;5034209;28;19916;-69
2022/05/31 12:43:59;;;;;;;;;;;;;;;-144.12;100.00;72078.50;5026056;28;19913;-69
2022/05/31 12:46:33;;;;;;;;;;;;;;;-144.12;100.00;72078.50;5032676;28;20436;-68
2022/05/31 12:49:01;;;;;;;;;;;;;;;-144.12;100.00;72078.50;5028201;28;19955;-68
2022/05/31 12:51:26;;;;;;;;;;;;;;;-144.12;100.00;72078.50;5033295;28;19924;-68
2022/05/31 12:53:59;;;;;;;;;;;;;;;-144.12;100.00;72078.50;5030086;28;20003;-68
2022/05/31 12:56:31;;;;;;;;;;;;;;;-144.12;100.00;72078.50;5027178;28;19976;-68
2022/05/31 12:58:57;;;;;;;;;;;;;;;-144.12;100.00;72078.50;5029348;28;19913;-68
2022/05/31 13:01:22;;;;;;;;;;;;;;;-144.12;100.00;72078.50;5012537;28;19915;-69
2022/05/31 13:03:48;;;;;;;;;;;;;;;-144.12;100.00;72078.50;5019215;28;20043;-68
2022/05/31 13:06:28;;;;;;;;;;;;;;;-144.12;100.00;72078.50;5039943;28;20377;-68
2022/05/31 13:08:59;;;;;;;;;;;;;;;-144.12;100.00;72078.50;5033109;28;19939;-68
2022/05/31 13:19:59;;;;;;;;;;;;;;;-144.12;100.00;72078.50;5004093;28;19939;-68